sensor_id;sensor_type;location;lat;lon;timestamp;P1;durP1;ratioP1;P2;durP2;ratioP2
45033;SDS011;30771;47.988;-4.186;2023-12-20T00:02:14;16.10;;;2.10;;
45033;SDS011;30771;47.988;-4.186;2023-12-20T00:04:41;5.07;;;1.15;;
45033;SDS011;30771;47.988;-4.186;2023-12-20T00:07:08;9.15;;;1.40;;
45033;SDS011;30771;47.988;-4.186;2023-12-20T00:09:35;5.93;;;1.48;;
45033;SDS011;30771;47.988;-4.186;2023-12-20T00:12:02;8.15;;;1.08;;
45033;SDS011;30771;47.988;-4.186;2023-12-20T00:14:29;5.97;;;1.42;;
45033;SDS011;30771;47.988;-4.186;2023-12-20T00:16:55;8.45;;;1.58;;
45033;SDS011;30771;47.988;-4.186;2023-12-20T00:19:22;9.32;;;1.40;;
45033;SDS011;30771;47.988;-4.186;2023-12-20T00:21:49;16.92;;;1.50;;
45033;SDS011;30771;47.988;-4.186;2023-12-20T00:24:16;8.88;;;1.73;;
45033;SDS011;30771;47.988;-4.186;2023-12-20T00:26:43;6.10;;;1.27;;
45033;SDS011;30771;47.988;-4.186;2023-12-20T00:29:09;10.73;;;1.50;;
45033;SDS011;30771;47.988;-4.186;2023-12-20T00:31:36;11.20;;;1.23;;
45033;SDS011;30771;47.988;-4.186;2023-12-20T00:34:03;11.85;;;1.50;;
45033;SDS011;30771;47.988;-4.186;2023-12-20T00:36:30;9.05;;;1.55;;
45033;SDS011;30771;47.988;-4.186;2023-12-20T00:38:57;9.13;;;1.70;;
45033;SDS011;30771;47.988;-4.186;2023-12-20T00:41:23;12.02;;;1.27;;
45033;SDS011;30771;47.988;-4.186;2023-12-20T00:43:50;15.95;;;1.40;;
45033;SDS011;30771;47.988;-4.186;2023-12-20T00:46:17;10.82;;;2.05;;
45033;SDS011;30771;47.988;-4.186;2023-12-20T00:48:44;11.10;;;1.42;;
45033;SDS011;30771;47.988;-4.186;2023-12-20T00:51:12;12.95;;;1.38;;
45033;SDS011;30771;47.988;-4.186;2023-12-20T00:53:38;14.05;;;1.70;;
45033;SDS011;30771;47.988;-4.186;2023-12-20T00:56:05;12.98;;;1.88;;
45033;SDS011;30771;47.988;-4.186;2023-12-20T00:58:32;13.45;;;1.38;;
45033;SDS011;30771;47.988;-4.186;2023-12-20T01:00:59;12.68;;;1.92;;
45033;SDS011;30771;47.988;-4.186;2023-12-20T01:03:26;13.10;;;2.03;;
45033;SDS011;30771;47.988;-4.186;2023-12-20T01:05:53;9.45;;;1.50;;
45033;SDS011;30771;47.988;-4.186;2023-12-20T01:08:20;11.93;;;1.90;;
45033;SDS011;30771;47.988;-4.186;2023-12-20T01:10:46;14.15;;;2.05;;
45033;SDS011;30771;47.988;-4.186;2023-12-20T01:13:13;13.32;;;1.73;;
45033;SDS011;30771;47.988;-4.186;2023-12-20T01:15:40;12.82;;;1.92;;
45033;SDS011;30771;47.988;-4.186;2023-12-20T01:18:08;15.85;;;1.98;;
45033;SDS011;30771;47.988;-4.186;2023-12-20T01:20:35;17.45;;;1.70;;
45033;SDS011;30771;47.988;-4.186;2023-12-20T01:23:02;18.17;;;1.88;;
45033;SDS011;30771;47.988;-4.186;2023-12-20T01:25:29;21.95;;;2.90;;
45033;SDS011;30771;47.988;-4.186;2023-12-20T01:27:56;18.50;;;2.80;;
45033;SDS011;30771;47.988;-4.186;2023-12-20T01:30:23;14.23;;;2.10;;
45033;SDS011;30771;47.988;-4.186;2023-12-20T01:32:51;12.35;;;1.60;;
45033;SDS011;30771;47.988;-4.186;2023-12-20T01:35:18;16.55;;;2.20;;
45033;SDS011;30771;47.988;-4.186;2023-12-20T01:37:45;20.02;;;2.05;;
45033;SDS011;30771;47.988;-4.186;2023-12-20T01:40:12;11.80;;;2.08;;
45033;SDS011;30771;47.988;-4.186;2023-12-20T01:42:39;13.18;;;1.90;;
45033;SDS011;30771;47.988;-4.186;2023-12-20T01:45:06;22.33;;;2.10;;
45033;SDS011;30771;47.988;-4.186;2023-12-20T01:47:33;13.40;;;1.50;;
45033;SDS011;30771;47.988;-4.186;2023-12-20T01:50:00;11.25;;;1.75;;
45033;SDS011;30771;47.988;-4.186;2023-12-20T01:52:30;12.80;;;1.92;;
45033;SDS011;30771;47.988;-4.186;2023-12-20T01:54:57;12.63;;;2.47;;
45033;SDS011;30771;47.988;-4.186;2023-12-20T01:57:29;16.13;;;1.83;;
45033;SDS011;30771;47.988;-4.186;2023-12-20T01:59:57;13.40;;;2.15;;
45033;SDS011;30771;47.988;-4.186;2023-12-20T02:02:24;13.43;;;1.58;;
45033;SDS011;30771;47.988;-4.186;2023-12-20T02:04:53;12.95;;;2.10;;
45033;SDS011;30771;47.988;-4.186;2023-12-20T02:07:21;13.93;;;2.28;;
45033;SDS011;30771;47.988;-4.186;2023-12-20T02:09:49;12.02;;;2.08;;
45033;SDS011;30771;47.988;-4.186;2023-12-20T02:12:16;14.18;;;1.70;;
45033;SDS011;30771;47.988;-4.186;2023-12-20T02:14:43;16.73;;;2.13;;
45033;SDS011;30771;47.988;-4.186;2023-12-20T02:17:10;14.93;;;2.10;;
45033;SDS011;30771;47.988;-4.186;2023-12-20T02:19:37;16.85;;;1.88;;
45033;SDS011;30771;47.988;-4.186;2023-12-20T02:22:12;20.05;;;2.22;;
45033;SDS011;30771;47.988;-4.186;2023-12-20T02:24:39;18.08;;;2.30;;
45033;SDS011;30771;47.988;-4.186;2023-12-20T02:27:06;16.08;;;2.22;;
45033;SDS011;30771;47.988;-4.186;2023-12-20T02:29:34;16.88;;;2.40;;
45033;SDS011;30771;47.988;-4.186;2023-12-20T02:32:01;14.95;;;2.05;;
45033;SDS011;30771;47.988;-4.186;2023-12-20T02:34:29;16.80;;;1.98;;
45033;SDS011;30771;47.988;-4.186;2023-12-20T02:36:56;14.55;;;1.80;;
45033;SDS011;30771;47.988;-4.186;2023-12-20T02:39:23;12.23;;;1.48;;
45033;SDS011;30771;47.988;-4.186;2023-12-20T02:41:50;17.65;;;2.10;;
45033;SDS011;30771;47.988;-4.186;2023-12-20T02:44:16;22.00;;;2.50;;
45033;SDS011;30771;47.988;-4.186;2023-12-20T02:46:43;13.55;;;1.73;;
45033;SDS011;30771;47.988;-4.186;2023-12-20T02:49:10;23.02;;;2.60;;
45033;SDS011;30771;47.988;-4.186;2023-12-20T02:51:37;21.73;;;2.53;;
45033;SDS011;30771;47.988;-4.186;2023-12-20T02:54:06;19.83;;;2.22;;
45033;SDS011;30771;47.988;-4.186;2023-12-20T02:56:33;21.88;;;3.03;;
45033;SDS011;30771;47.988;-4.186;2023-12-20T02:59:00;15.85;;;2.25;;
45033;SDS011;30771;47.988;-4.186;2023-12-20T03:01:28;11.38;;;2.08;;
45033;SDS011;30771;47.988;-4.186;2023-12-20T03:03:55;16.75;;;2.25;;
45033;SDS011;30771;47.988;-4.186;2023-12-20T03:06:22;16.60;;;2.65;;
45033;SDS011;30771;47.988;-4.186;2023-12-20T03:08:49;14.18;;;2.53;;
45033;SDS011;30771;47.988;-4.186;2023-12-20T03:11:16;20.50;;;2.40;;
45033;SDS011;30771;47.988;-4.186;2023-12-20T03:13:43;18.25;;;2.50;;
45033;SDS011;30771;47.988;-4.186;2023-12-20T03:16:10;13.32;;;3.25;;
45033;SDS011;30771;47.988;-4.186;2023-12-20T03:18:37;21.48;;;2.50;;
45033;SDS011;30771;47.988;-4.186;2023-12-20T03:21:04;17.10;;;2.38;;
45033;SDS011;30771;47.988;-4.186;2023-12-20T03:23:31;17.48;;;2.75;;
45033;SDS011;30771;47.988;-4.186;2023-12-20T03:25:59;15.43;;;3.10;;
45033;SDS011;30771;47.988;-4.186;2023-12-20T03:28:27;15.73;;;2.22;;
45033;SDS011;30771;47.988;-4.186;2023-12-20T03:30:54;22.60;;;2.72;;
45033;SDS011;30771;47.988;-4.186;2023-12-20T03:33:22;15.82;;;2.45;;
45033;SDS011;30771;47.988;-4.186;2023-12-20T03:35:48;21.17;;;2.60;;
45033;SDS011;30771;47.988;-4.186;2023-12-20T03:38:15;15.45;;;1.95;;
45033;SDS011;30771;47.988;-4.186;2023-12-20T03:40:42;17.83;;;1.83;;
45033;SDS011;30771;47.988;-4.186;2023-12-20T03:43:09;13.80;;;2.92;;
45033;SDS011;30771;47.988;-4.186;2023-12-20T03:45:36;16.90;;;2.17;;
45033;SDS011;30771;47.988;-4.186;2023-12-20T03:48:03;18.88;;;2.10;;
45033;SDS011;30771;47.988;-4.186;2023-12-20T03:50:30;19.40;;;2.85;;
45033;SDS011;30771;47.988;-4.186;2023-12-20T03:52:57;24.48;;;2.78;;
45033;SDS011;30771;47.988;-4.186;2023-12-20T03:55:23;17.17;;;2.47;;
45033;SDS011;30771;47.988;-4.186;2023-12-20T03:57:50;24.40;;;3.30;;
45033;SDS011;30771;47.988;-4.186;2023-12-20T04:00:17;15.70;;;2.22;;
45033;SDS011;30771;47.988;-4.186;2023-12-20T04:02:44;20.95;;;2.85;;
45033;SDS011;30771;47.988;-4.186;2023-12-20T04:05:11;19.77;;;2.50;;
45033;SDS011;30771;47.988;-4.186;2023-12-20T04:07:38;14.10;;;2.92;;
45033;SDS011;30771;47.988;-4.186;2023-12-20T04:10:05;20.30;;;3.00;;
45033;SDS011;30771;47.988;-4.186;2023-12-20T04:12:33;26.38;;;2.92;;
45033;SDS011;30771;47.988;-4.186;2023-12-20T04:15:00;14.35;;;1.98;;
45033;SDS011;30771;47.988;-4.186;2023-12-20T04:17:26;22.98;;;3.25;;
45033;SDS011;30771;47.988;-4.186;2023-12-20T04:19:53;20.73;;;2.97;;
45033;SDS011;30771;47.988;-4.186;2023-12-20T04:22:20;21.15;;;3.17;;
45033;SDS011;30771;47.988;-4.186;2023-12-20T04:24:47;16.60;;;2.92;;
45033;SDS011;30771;47.988;-4.186;2023-12-20T04:27:13;19.02;;;2.60;;
45033;SDS011;30771;47.988;-4.186;2023-12-20T04:29:40;18.85;;;3.55;;
45033;SDS011;30771;47.988;-4.186;2023-12-20T04:32:07;25.70;;;2.95;;
45033;SDS011;30771;47.988;-4.186;2023-12-20T04:34:34;22.65;;;2.95;;
45033;SDS011;30771;47.988;-4.186;2023-12-20T04:37:01;14.63;;;2.58;;
45033;SDS011;30771;47.988;-4.186;2023-12-20T04:39:28;21.33;;;2.55;;
45033;SDS011;30771;47.988;-4.186;2023-12-20T04:41:55;20.65;;;2.28;;
45033;SDS011;30771;47.988;-4.186;2023-12-20T04:44:22;20.05;;;3.70;;
45033;SDS011;30771;47.988;-4.186;2023-12-20T04:46:49;22.00;;;2.63;;
45033;SDS011;30771;47.988;-4.186;2023-12-20T04:49:15;27.23;;;3.22;;
45033;SDS011;30771;47.988;-4.186;2023-12-20T04:51:42;15.52;;;2.38;;
45033;SDS011;30771;47.988;-4.186;2023-12-20T04:54:09;20.58;;;3.40;;
45033;SDS011;30771;47.988;-4.186;2023-12-20T04:56:37;15.93;;;2.63;;
45033;SDS011;30771;47.988;-4.186;2023-12-20T04:59:03;26.88;;;3.95;;
45033;SDS011;30771;47.988;-4.186;2023-12-20T05:01:30;14.80;;;2.63;;
45033;SDS011;30771;47.988;-4.186;2023-12-20T05:03:57;19.23;;;3.30;;
45033;SDS011;30771;47.988;-4.186;2023-12-20T05:06:24;20.83;;;3.03;;
45033;SDS011;30771;47.988;-4.186;2023-12-20T05:08:51;23.00;;;3.03;;
45033;SDS011;30771;47.988;-4.186;2023-12-20T05:11:17;21.15;;;3.08;;
45033;SDS011;30771;47.988;-4.186;2023-12-20T05:13:44;18.65;;;2.85;;
45033;SDS011;30771;47.988;-4.186;2023-12-20T05:16:16;17.70;;;2.90;;
45033;SDS011;30771;47.988;-4.186;2023-12-20T05:18:45;22.63;;;2.40;;
45033;SDS011;30771;47.988;-4.186;2023-12-20T05:21:13;23.63;;;3.42;;
45033;SDS011;30771;47.988;-4.186;2023-12-20T05:23:40;25.75;;;3.75;;
45033;SDS011;30771;47.988;-4.186;2023-12-20T05:26:07;26.92;;;4.13;;
45033;SDS011;30771;47.988;-4.186;2023-12-20T05:28:33;20.00;;;2.88;;
45033;SDS011;30771;47.988;-4.186;2023-12-20T05:31:00;28.27;;;4.53;;
45033;SDS011;30771;47.988;-4.186;2023-12-20T05:33:27;29.35;;;4.97;;
45033;SDS011;30771;47.988;-4.186;2023-12-20T05:35:54;18.30;;;2.72;;
45033;SDS011;30771;47.988;-4.186;2023-12-20T05:38:21;29.10;;;3.65;;
45033;SDS011;30771;47.988;-4.186;2023-12-20T05:40:48;24.58;;;3.85;;
45033;SDS011;30771;47.988;-4.186;2023-12-20T05:43:14;23.70;;;3.40;;
45033;SDS011;30771;47.988;-4.186;2023-12-20T05:45:41;23.73;;;4.35;;
45033;SDS011;30771;47.988;-4.186;2023-12-20T05:48:08;22.20;;;3.50;;
45033;SDS011;30771;47.988;-4.186;2023-12-20T05:50:35;24.92;;;3.30;;
45033;SDS011;30771;47.988;-4.186;2023-12-20T05:53:03;28.98;;;3.47;;
45033;SDS011;30771;47.988;-4.186;2023-12-20T05:55:30;30.85;;;3.35;;
45033;SDS011;30771;47.988;-4.186;2023-12-20T05:57:56;28.63;;;3.40;;
45033;SDS011;30771;47.988;-4.186;2023-12-20T06:00:23;29.85;;;3.72;;
45033;SDS011;30771;47.988;-4.186;2023-12-20T06:02:51;28.33;;;3.80;;
45033;SDS011;30771;47.988;-4.186;2023-12-20T06:05:18;20.75;;;3.25;;
45033;SDS011;30771;47.988;-4.186;2023-12-20T06:07:45;20.98;;;2.65;;
45033;SDS011;30771;47.988;-4.186;2023-12-20T06:10:15;27.98;;;3.67;;
45033;SDS011;30771;47.988;-4.186;2023-12-20T06:12:41;19.88;;;3.38;;
45033;SDS011;30771;47.988;-4.186;2023-12-20T06:15:08;20.73;;;3.88;;
45033;SDS011;30771;47.988;-4.186;2023-12-20T06:17:35;22.60;;;3.10;;
45033;SDS011;30771;47.988;-4.186;2023-12-20T06:20:26;23.73;;;2.88;;
45033;SDS011;30771;47.988;-4.186;2023-12-20T06:22:53;26.55;;;3.70;;
45033;SDS011;30771;47.988;-4.186;2023-12-20T06:25:19;22.38;;;3.20;;
45033;SDS011;30771;47.988;-4.186;2023-12-20T06:27:46;13.13;;;2.17;;
45033;SDS011;30771;47.988;-4.186;2023-12-20T06:30:15;16.45;;;3.05;;
45033;SDS011;30771;47.988;-4.186;2023-12-20T06:32:42;25.88;;;3.45;;
45033;SDS011;30771;47.988;-4.186;2023-12-20T06:35:09;19.10;;;2.97;;
45033;SDS011;30771;47.988;-4.186;2023-12-20T06:37:36;21.27;;;2.42;;
45033;SDS011;30771;47.988;-4.186;2023-12-20T06:40:02;18.98;;;2.42;;
45033;SDS011;30771;47.988;-4.186;2023-12-20T06:42:30;23.15;;;3.25;;
45033;SDS011;30771;47.988;-4.186;2023-12-20T06:45:00;26.20;;;4.32;;
45033;SDS011;30771;47.988;-4.186;2023-12-20T06:47:27;18.88;;;2.20;;
45033;SDS011;30771;47.988;-4.186;2023-12-20T06:49:54;27.10;;;3.33;;
45033;SDS011;30771;47.988;-4.186;2023-12-20T06:52:21;19.52;;;2.50;;
45033;SDS011;30771;47.988;-4.186;2023-12-20T06:54:48;25.85;;;4.00;;
45033;SDS011;30771;47.988;-4.186;2023-12-20T06:57:15;25.95;;;2.67;;
45033;SDS011;30771;47.988;-4.186;2023-12-20T06:59:42;32.78;;;3.85;;
45033;SDS011;30771;47.988;-4.186;2023-12-20T07:02:08;20.38;;;3.63;;
45033;SDS011;30771;47.988;-4.186;2023-12-20T07:04:41;25.13;;;4.00;;
45033;SDS011;30771;47.988;-4.186;2023-12-20T07:07:08;24.02;;;3.35;;
45033;SDS011;30771;47.988;-4.186;2023-12-20T07:09:35;27.02;;;3.22;;
45033;SDS011;30771;47.988;-4.186;2023-12-20T07:12:02;22.75;;;3.80;;
45033;SDS011;30771;47.988;-4.186;2023-12-20T07:14:28;28.85;;;3.67;;
45033;SDS011;30771;47.988;-4.186;2023-12-20T07:16:55;25.67;;;3.05;;
45033;SDS011;30771;47.988;-4.186;2023-12-20T07:19:22;27.98;;;4.43;;
45033;SDS011;30771;47.988;-4.186;2023-12-20T07:21:49;24.75;;;3.03;;
45033;SDS011;30771;47.988;-4.186;2023-12-20T07:24:16;17.83;;;3.10;;
45033;SDS011;30771;47.988;-4.186;2023-12-20T07:26:43;19.23;;;3.03;;
45033;SDS011;30771;47.988;-4.186;2023-12-20T07:29:09;28.77;;;3.38;;
45033;SDS011;30771;47.988;-4.186;2023-12-20T07:31:36;24.38;;;2.97;;
45033;SDS011;30771;47.988;-4.186;2023-12-20T07:34:03;23.05;;;4.10;;
45033;SDS011;30771;47.988;-4.186;2023-12-20T07:36:30;22.58;;;3.15;;
45033;SDS011;30771;47.988;-4.186;2023-12-20T07:38:57;17.33;;;3.35;;
45033;SDS011;30771;47.988;-4.186;2023-12-20T07:41:24;20.88;;;2.75;;
45033;SDS011;30771;47.988;-4.186;2023-12-20T07:43:51;17.38;;;2.88;;
45033;SDS011;30771;47.988;-4.186;2023-12-20T07:46:17;24.58;;;3.28;;
45033;SDS011;30771;47.988;-4.186;2023-12-20T07:48:49;20.52;;;4.13;;
45033;SDS011;30771;47.988;-4.186;2023-12-20T07:51:15;18.30;;;2.95;;
45033;SDS011;30771;47.988;-4.186;2023-12-20T07:53:42;20.08;;;2.95;;
45033;SDS011;30771;47.988;-4.186;2023-12-20T07:56:18;21.00;;;2.55;;
45033;SDS011;30771;47.988;-4.186;2023-12-20T07:58:46;19.48;;;2.90;;
45033;SDS011;30771;47.988;-4.186;2023-12-20T08:01:19;22.50;;;2.90;;
45033;SDS011;30771;47.988;-4.186;2023-12-20T08:03:48;23.02;;;3.38;;
45033;SDS011;30771;47.988;-4.186;2023-12-20T08:06:15;22.40;;;3.55;;
45033;SDS011;30771;47.988;-4.186;2023-12-20T08:08:44;20.60;;;3.08;;
45033;SDS011;30771;47.988;-4.186;2023-12-20T08:11:20;23.48;;;3.38;;
45033;SDS011;30771;47.988;-4.186;2023-12-20T08:13:47;22.63;;;2.63;;
45033;SDS011;30771;47.988;-4.186;2023-12-20T08:16:13;19.25;;;2.65;;
45033;SDS011;30771;47.988;-4.186;2023-12-20T08:18:42;27.58;;;3.10;;
45033;SDS011;30771;47.988;-4.186;2023-12-20T08:21:09;22.35;;;3.10;;
45033;SDS011;30771;47.988;-4.186;2023-12-20T08:23:36;19.25;;;2.80;;
45033;SDS011;30771;47.988;-4.186;2023-12-20T08:26:09;23.25;;;3.20;;
45033;SDS011;30771;47.988;-4.186;2023-12-20T08:28:36;23.98;;;3.20;;
45033;SDS011;30771;47.988;-4.186;2023-12-20T08:31:03;21.27;;;2.30;;
45033;SDS011;30771;47.988;-4.186;2023-12-20T08:33:30;19.77;;;2.78;;
45033;SDS011;30771;47.988;-4.186;2023-12-20T08:35:57;20.00;;;3.67;;
45033;SDS011;30771;47.988;-4.186;2023-12-20T08:38:24;21.00;;;2.85;;
45033;SDS011;30771;47.988;-4.186;2023-12-20T08:40:51;17.25;;;2.55;;
45033;SDS011;30771;47.988;-4.186;2023-12-20T08:43:18;17.42;;;2.95;;
45033;SDS011;30771;47.988;-4.186;2023-12-20T08:45:45;13.95;;;2.40;;
45033;SDS011;30771;47.988;-4.186;2023-12-20T08:48:11;15.10;;;2.58;;
45033;SDS011;30771;47.988;-4.186;2023-12-20T08:50:38;23.27;;;2.70;;
45033;SDS011;30771;47.988;-4.186;2023-12-20T08:53:05;20.23;;;2.85;;
45033;SDS011;30771;47.988;-4.186;2023-12-20T08:55:32;14.95;;;2.25;;
45033;SDS011;30771;47.988;-4.186;2023-12-20T08:57:59;18.70;;;3.03;;
45033;SDS011;30771;47.988;-4.186;2023-12-20T09:00:26;19.50;;;2.97;;
45033;SDS011;30771;47.988;-4.186;2023-12-20T09:02:54;14.48;;;3.28;;
45033;SDS011;30771;47.988;-4.186;2023-12-20T09:05:21;17.80;;;2.72;;
45033;SDS011;30771;47.988;-4.186;2023-12-20T09:07:49;19.33;;;3.20;;
45033;SDS011;30771;47.988;-4.186;2023-12-20T09:10:16;19.08;;;2.67;;
45033;SDS011;30771;47.988;-4.186;2023-12-20T09:12:49;17.42;;;2.72;;
45033;SDS011;30771;47.988;-4.186;2023-12-20T09:15:17;18.65;;;2.70;;
45033;SDS011;30771;47.988;-4.186;2023-12-20T09:17:44;21.98;;;2.58;;
45033;SDS011;30771;47.988;-4.186;2023-12-20T09:20:11;19.58;;;2.78;;
45033;SDS011;30771;47.988;-4.186;2023-12-20T09:25:08;22.08;;;2.85;;
45033;SDS011;30771;47.988;-4.186;2023-12-20T09:27:36;21.83;;;2.95;;
45033;SDS011;30771;47.988;-4.186;2023-12-20T09:30:03;24.58;;;3.88;;
45033;SDS011;30771;47.988;-4.186;2023-12-20T09:32:31;27.25;;;4.53;;
45033;SDS011;30771;47.988;-4.186;2023-12-20T09:34:58;22.95;;;2.88;;
45033;SDS011;30771;47.988;-4.186;2023-12-20T09:37:26;21.23;;;3.13;;
45033;SDS011;30771;47.988;-4.186;2023-12-20T09:39:54;26.25;;;4.05;;
45033;SDS011;30771;47.988;-4.186;2023-12-20T09:42:24;21.80;;;3.40;;
45033;SDS011;30771;47.988;-4.186;2023-12-20T09:44:55;18.33;;;3.28;;
45033;SDS011;30771;47.988;-4.186;2023-12-20T09:47:27;21.88;;;2.65;;
45033;SDS011;30771;47.988;-4.186;2023-12-20T09:49:54;22.98;;;2.33;;
45033;SDS011;30771;47.988;-4.186;2023-12-20T09:52:21;22.13;;;3.47;;
45033;SDS011;30771;47.988;-4.186;2023-12-20T09:54:50;15.63;;;2.38;;
45033;SDS011;30771;47.988;-4.186;2023-12-20T09:57:19;23.00;;;3.25;;
45033;SDS011;30771;47.988;-4.186;2023-12-20T09:59:46;17.50;;;3.35;;
45033;SDS011;30771;47.988;-4.186;2023-12-20T10:02:13;20.25;;;2.72;;
45033;SDS011;30771;47.988;-4.186;2023-12-20T10:04:46;24.90;;;2.65;;
45033;SDS011;30771;47.988;-4.186;2023-12-20T10:07:17;26.20;;;3.00;;
45033;SDS011;30771;47.988;-4.186;2023-12-20T10:09:44;16.65;;;2.90;;
45033;SDS011;30771;47.988;-4.186;2023-12-20T10:12:10;27.52;;;3.20;;
45033;SDS011;30771;47.988;-4.186;2023-12-20T10:14:38;22.60;;;3.20;;
45033;SDS011;30771;47.988;-4.186;2023-12-20T10:17:05;25.08;;;4.40;;
45033;SDS011;30771;47.988;-4.186;2023-12-20T10:19:32;25.02;;;3.95;;
45033;SDS011;30771;47.988;-4.186;2023-12-20T10:21:59;20.25;;;3.20;;
45033;SDS011;30771;47.988;-4.186;2023-12-20T10:24:29;29.88;;;3.70;;
45033;SDS011;30771;47.988;-4.186;2023-12-20T10:29:33;22.42;;;3.45;;
45033;SDS011;30771;47.988;-4.186;2023-12-20T10:32:25;17.55;;;2.60;;
45033;SDS011;30771;47.988;-4.186;2023-12-20T10:34:52;23.63;;;2.45;;
45033;SDS011;30771;47.988;-4.186;2023-12-20T10:37:20;14.13;;;2.72;;
45033;SDS011;30771;47.988;-4.186;2023-12-20T10:39:51;20.35;;;3.40;;
45033;SDS011;30771;47.988;-4.186;2023-12-20T10:42:26;27.23;;;2.80;;
45033;SDS011;30771;47.988;-4.186;2023-12-20T10:44:53;20.40;;;3.60;;
45033;SDS011;30771;47.988;-4.186;2023-12-20T10:47:20;16.98;;;2.90;;
45033;SDS011;30771;47.988;-4.186;2023-12-20T10:49:47;18.02;;;2.22;;
45033;SDS011;30771;47.988;-4.186;2023-12-20T10:52:14;22.30;;;2.65;;
45033;SDS011;30771;47.988;-4.186;2023-12-20T10:54:44;17.33;;;3.00;;
45033;SDS011;30771;47.988;-4.186;2023-12-20T10:57:11;21.15;;;2.75;;
45033;SDS011;30771;47.988;-4.186;2023-12-20T10:59:39;26.67;;;3.17;;
45033;SDS011;30771;47.988;-4.186;2023-12-20T11:02:06;19.75;;;2.95;;
45033;SDS011;30771;47.988;-4.186;2023-12-20T11:07:40;15.48;;;1.70;;
45033;SDS011;30771;47.988;-4.186;2023-12-20T11:10:31;15.57;;;2.50;;
45033;SDS011;30771;47.988;-4.186;2023-12-20T11:13:23;11.13;;;1.70;;
45033;SDS011;30771;47.988;-4.186;2023-12-20T11:15:58;13.15;;;2.33;;
45033;SDS011;30771;47.988;-4.186;2023-12-20T11:18:28;16.58;;;1.70;;
45033;SDS011;30771;47.988;-4.186;2023-12-20T11:21:04;5.80;;;1.08;;
45033;SDS011;30771;47.988;-4.186;2023-12-20T11:23:32;11.23;;;1.70;;
45033;SDS011;30771;47.988;-4.186;2023-12-20T11:26:02;11.40;;;1.95;;
45033;SDS011;30771;47.988;-4.186;2023-12-20T11:28:29;17.02;;;2.22;;
45033;SDS011;30771;47.988;-4.186;2023-12-20T11:30:58;10.95;;;1.45;;
45033;SDS011;30771;47.988;-4.186;2023-12-20T11:35:59;17.83;;;2.33;;
45033;SDS011;30771;47.988;-4.186;2023-12-20T11:38:26;12.88;;;2.08;;
45033;SDS011;30771;47.988;-4.186;2023-12-20T11:40:54;11.73;;;1.70;;
45033;SDS011;30771;47.988;-4.186;2023-12-20T11:43:32;15.90;;;1.90;;
45033;SDS011;30771;47.988;-4.186;2023-12-20T11:46:02;15.52;;;2.40;;
45033;SDS011;30771;47.988;-4.186;2023-12-20T11:48:39;19.65;;;2.67;;
45033;SDS011;30771;47.988;-4.186;2023-12-20T11:51:10;13.90;;;1.80;;
45033;SDS011;30771;47.988;-4.186;2023-12-20T11:53:37;13.10;;;1.90;;
45033;SDS011;30771;47.988;-4.186;2023-12-20T11:56:07;17.40;;;2.47;;
45033;SDS011;30771;47.988;-4.186;2023-12-20T11:58:34;19.88;;;2.47;;
45033;SDS011;30771;47.988;-4.186;2023-12-20T12:01:02;19.08;;;2.22;;
45033;SDS011;30771;47.988;-4.186;2023-12-20T12:05:57;23.25;;;2.90;;
45033;SDS011;30771;47.988;-4.186;2023-12-20T12:08:24;20.75;;;2.70;;
45033;SDS011;30771;47.988;-4.186;2023-12-20T12:10:51;19.90;;;3.25;;
45033;SDS011;30771;47.988;-4.186;2023-12-20T12:13:19;17.45;;;2.13;;
45033;SDS011;30771;47.988;-4.186;2023-12-20T12:15:47;15.45;;;2.25;;
45033;SDS011;30771;47.988;-4.186;2023-12-20T12:18:17;19.05;;;1.92;;
45033;SDS011;30771;47.988;-4.186;2023-12-20T12:20:44;18.77;;;3.00;;
45033;SDS011;30771;47.988;-4.186;2023-12-20T12:23:12;17.90;;;2.47;;
45033;SDS011;30771;47.988;-4.186;2023-12-20T12:25:39;14.25;;;1.80;;
45033;SDS011;30771;47.988;-4.186;2023-12-20T12:28:09;20.83;;;2.78;;
45033;SDS011;30771;47.988;-4.186;2023-12-20T12:30:37;21.57;;;2.00;;
45033;SDS011;30771;47.988;-4.186;2023-12-20T12:33:11;20.88;;;2.47;;
45033;SDS011;30771;47.988;-4.186;2023-12-20T12:35:39;17.27;;;2.22;;
45033;SDS011;30771;47.988;-4.186;2023-12-20T12:38:07;19.42;;;2.30;;
45033;SDS011;30771;47.988;-4.186;2023-12-20T12:40:35;19.65;;;2.10;;
45033;SDS011;30771;47.988;-4.186;2023-12-20T12:43:03;13.93;;;1.92;;
45033;SDS011;30771;47.988;-4.186;2023-12-20T12:45:30;11.70;;;1.87;;
45033;SDS011;30771;47.988;-4.186;2023-12-20T12:47:57;9.77;;;1.73;;
45033;SDS011;30771;47.988;-4.186;2023-12-20T12:50:24;13.88;;;1.67;;
45033;SDS011;30771;47.988;-4.186;2023-12-20T12:52:51;12.93;;;2.00;;
45033;SDS011;30771;47.988;-4.186;2023-12-20T12:55:18;15.95;;;1.60;;
45033;SDS011;30771;47.988;-4.186;2023-12-20T12:57:45;12.00;;;2.33;;
45033;SDS011;30771;47.988;-4.186;2023-12-20T13:00:12;14.65;;;1.38;;
45033;SDS011;30771;47.988;-4.186;2023-12-20T13:02:40;22.38;;;2.10;;
45033;SDS011;30771;47.988;-4.186;2023-12-20T13:05:09;13.30;;;2.10;;
45033;SDS011;30771;47.988;-4.186;2023-12-20T13:07:37;13.93;;;1.65;;
45033;SDS011;30771;47.988;-4.186;2023-12-20T13:10:04;13.82;;;1.60;;
45033;SDS011;30771;47.988;-4.186;2023-12-20T13:12:32;13.75;;;1.67;;
45033;SDS011;30771;47.988;-4.186;2023-12-20T13:14:59;13.77;;;1.70;;
45033;SDS011;30771;47.988;-4.186;2023-12-20T13:17:26;20.80;;;2.15;;
45033;SDS011;30771;47.988;-4.186;2023-12-20T13:19:55;15.45;;;2.15;;
45033;SDS011;30771;47.988;-4.186;2023-12-20T13:22:23;17.13;;;2.85;;
45033;SDS011;30771;47.988;-4.186;2023-12-20T13:24:50;19.23;;;2.50;;
45033;SDS011;30771;47.988;-4.186;2023-12-20T13:27:17;12.55;;;1.70;;
45033;SDS011;30771;47.988;-4.186;2023-12-20T13:29:44;13.82;;;1.70;;
45033;SDS011;30771;47.988;-4.186;2023-12-20T13:32:10;11.32;;;1.70;;
45033;SDS011;30771;47.988;-4.186;2023-12-20T13:34:38;9.38;;;1.55;;
45033;SDS011;30771;47.988;-4.186;2023-12-20T13:37:05;12.75;;;1.30;;
45033;SDS011;30771;47.988;-4.186;2023-12-20T13:39:31;10.80;;;1.70;;
45033;SDS011;30771;47.988;-4.186;2023-12-20T13:41:58;9.52;;;1.55;;
45033;SDS011;30771;47.988;-4.186;2023-12-20T13:44:27;11.30;;;1.67;;
45033;SDS011;30771;47.988;-4.186;2023-12-20T13:46:53;6.60;;;1.48;;
45033;SDS011;30771;47.988;-4.186;2023-12-20T13:49:20;13.82;;;1.50;;
45033;SDS011;30771;47.988;-4.186;2023-12-20T13:51:48;13.82;;;3.05;;
45033;SDS011;30771;47.988;-4.186;2023-12-20T13:54:14;12.20;;;1.48;;
45033;SDS011;30771;47.988;-4.186;2023-12-20T13:56:43;10.15;;;0.98;;
45033;SDS011;30771;47.988;-4.186;2023-12-20T13:59:28;8.50;;;1.10;;
45033;SDS011;30771;47.988;-4.186;2023-12-20T14:01:54;8.57;;;1.00;;
45033;SDS011;30771;47.988;-4.186;2023-12-20T14:04:23;4.00;;;0.82;;
45033;SDS011;30771;47.988;-4.186;2023-12-20T14:07:08;9.32;;;1.20;;
45033;SDS011;30771;47.988;-4.186;2023-12-20T14:09:38;7.68;;;1.30;;
45033;SDS011;30771;47.988;-4.186;2023-12-20T14:12:05;11.18;;;1.90;;
45033;SDS011;30771;47.988;-4.186;2023-12-20T14:14:32;12.43;;;1.98;;
45033;SDS011;30771;47.988;-4.186;2023-12-20T14:16:59;10.80;;;1.77;;
45033;SDS011;30771;47.988;-4.186;2023-12-20T14:19:26;17.17;;;4.43;;
45033;SDS011;30771;47.988;-4.186;2023-12-20T14:21:53;22.85;;;7.10;;
45033;SDS011;30771;47.988;-4.186;2023-12-20T14:24:19;23.40;;;7.25;;
45033;SDS011;30771;47.988;-4.186;2023-12-20T14:26:46;17.00;;;6.75;;
45033;SDS011;30771;47.988;-4.186;2023-12-20T14:29:13;8.00;;;1.90;;
45033;SDS011;30771;47.988;-4.186;2023-12-20T14:31:40;6.68;;;1.30;;
45033;SDS011;30771;47.988;-4.186;2023-12-20T14:34:07;5.10;;;0.95;;
45033;SDS011;30771;47.988;-4.186;2023-12-20T14:36:35;6.45;;;0.80;;
45033;SDS011;30771;47.988;-4.186;2023-12-20T14:39:01;5.05;;;1.02;;
45033;SDS011;30771;47.988;-4.186;2023-12-20T14:41:30;3.72;;;0.82;;